Aérodrome :
LOGIN :

S'inscrire | Disclaimer

   EN    FR    IT 

 










Légende :    VFR   VFR Marginal   IFR   IFR Intensif   IFR Très Intensif
Visi : 
Plafond : 
>= 8 km
>= 3000ft
5 à 8 km
1000 à 3000 ft
1500m à 5 km
500 à 1000 ft
800 à 1500m
200 à 500 ft
< 800m
< 200 ft
Symboles :   Orages  Brouillard  Fortes neiges  Fortes précipitations  Vent > 20 kt
SIGMETs :   Divers  Orages  Givrage  Turbulence  Onde Orograph.  Cendres Volcan.






- Altitude de l'aérodrome : 170 ft
- Code IATA : KRP


EKKA - Karup

DERNIER METAR :
  • 221629Z AUTO 26024G35KT 9999 BKN032/// 07/01 Q0998

METARs EXPIRÉS :
  • 221613Z AUTO 26028G39KT 9999 BKN031/// 07/01 Q0998
  • 221558Z AUTO 26025G36KT 9999 BKN031/// 07/02 Q0998
  • 221550Z AUTO 26025G35KT 9999 BKN031/// 07/02 Q0998
  • 221533Z AUTO 26029G40KT 9999 BKN029/// 07/01 Q0997
  • 221520Z AUTO 26029G41KT 9999 BKN029/// 07/02 Q0997
  • 221455Z AUTO 26028G39KT 9999 BKN030/// 07/02 Q0997
  • 221454Z AUTO 26028G39KT 9999 BKN030/// 07/01 Q0997
  • 221443Z AUTO 26031G42KT 9999 BKN029/// 07/01 Q0996
  • 221420Z AUTO 26028G40KT 9999 BKN031/// BKN100/// 08/02 Q0997
  • 221405Z AUTO 26025G39KT 9999 SCT031/// BKN100/// 08/02 Q0996
  • 221350Z AUTO 26028G43KT 9999 BKN030/// BKN110/// 08/02 Q0996

TAF TAF EKKA
Valide du 22 à 15h jusqu'au 23 à 15h UTC


221416Z 2215/2315 26018KT 9999 SCT020
TEMPO 2215/2222 27025G40KT 4000 SHRAGS SCT020CB
TEMPO 2222/2315 27020G32KT



MET'MAP, la Météo Aéronautique d'un coup d'oeil ! - Copyright ORBIFLY Décembre 2007 - Disclaimer

ORBIFLY MET'MAP TEAM :

Programmation & Développement : Alexandra Zaïnal
Sur une idée originale de : Baudouin d'Aumeries
Assistance à la programmation : Marc-Olivier Méhu
Soutien technique & logistique : Manuel Goepfert

Contact : metmap@orbifly.com




SOURCES & CREDITS :

   NOAA